Terminal Aerodrome Forecast
Issued by NWS Mt. Holly, NJ

Current Version | Previous Version | Text Only | Print | Product List | Glossary On
Versions: 1 2 3 4 5 6 7 8 9 10 11 12 13 14
000
FTUS41 KPHI 190500
TAFILG
TAF
KILG 190527Z 1906/2006 36004KT P6SM FEW080
      TEMPO 1908/1912 6SM BR
     FM191300 05009KT P6SM SCT060
     FM191800 10011KT P6SM SCT060
     FM200300 11007KT P6SM BKN040=

USA.gov is the U.S. government's official web portal to all federal, state and local government web resources and services.